Time;durP1;ratioP1;P1;durP2;ratioP2;P2;SDS_P1;SDS_P2;PMS_P1;PMS_P2;Temp;Humidity;BMP_temperature;BMP_pressure;BME280_temperature;BME280_humidity;BME280_pressure;Samples;Min_cycle;Max_cycle;Signal;HPM_P1;HPM_P2
2023/01/31 00:04:27;;;;;;;3.20;2.90;;;;;;;21.43;37.20;101873.41;21028507;28;20078;-62
2023/01/31 00:14:31;;;;;;;3.10;2.80;;;;;;;21.43;37.00;101783.47;21031879;28;20544;-62
2023/01/31 00:24:32;;;;;;;3.47;2.80;;;;;;;21.41;36.97;101767.03;21068494;28;20548;-62
2023/01/31 00:34:36;;;;;;;2.50;2.30;;;;;;;21.24;37.37;101778.25;21040212;28;20400;-62
2023/01/31 00:44:37;;;;;;;2.78;2.55;;;;;;;21.40;36.99;101814.66;21012399;28;20045;-62
2023/01/31 00:54:38;;;;;;;3.08;2.30;;;;;;;21.37;37.03;101790.94;21034595;28;20097;-63
2023/01/31 01:04:40;;;;;;;2.55;2.35;;;;;;;21.37;37.01;101790.09;21033089;28;20408;-63
2023/01/31 01:14:41;;;;;;;3.90;2.70;;;;;;;21.35;37.31;101783.94;20998479;28;20135;-63
2023/01/31 01:24:44;;;;;;;3.17;2.65;;;;;;;21.18;37.45;101753.44;21001556;28;20078;-63
2023/01/31 01:34:46;;;;;;;2.53;2.33;;;;;;;21.30;37.44;101823.69;21004153;28;20040;-62
2023/01/31 01:44:58;;;;;;;2.60;2.40;;;;;;;21.19;37.50;101828.31;21008495;28;20064;-62
2023/01/31 01:55:05;;;;;;;2.90;2.42;;;;;;;21.00;37.47;101788.03;21015319;28;20102;-62
2023/01/31 02:05:08;;;;;;;2.88;2.55;;;;;;;21.25;37.72;101827.25;21028722;28;20395;-61
2023/01/31 02:15:12;;;;;;;2.97;2.72;;;;;;;21.24;37.68;101847.84;21041539;28;20426;-63
2023/01/31 02:25:48;;;;;;;3.22;2.17;;;;;;;21.19;37.65;101855.31;21028469;28;20403;-62
2023/01/31 02:36:09;;;;;;;6.53;3.10;;;;;;;21.21;37.78;101861.44;21028080;28;20040;-62
2023/01/31 02:46:17;;;;;;;4.63;2.30;;;;;;;21.06;37.77;101825.94;21056614;28;20047;-63
2023/01/31 02:56:31;;;;;;;6.23;4.20;;;;;;;21.10;38.08;101843.78;21004125;28;20048;-61
2023/01/31 03:06:35;;;;;;;6.03;4.05;;;;;;;21.22;37.85;101861.19;21067402;28;20048;-61
2023/01/31 03:27:05;;;;;;;5.75;3.97;;;;;;;21.22;37.88;101816.66;21047107;28;20040;-61
2023/01/31 03:37:21;;;;;;;7.68;4.60;;;;;;;21.19;38.10;101825.53;21012383;28;20041;-63
2023/01/31 03:47:39;;;;;;;6.72;4.53;;;;;;;21.19;37.93;101800.47;21056477;28;20396;-63
2023/01/31 03:57:45;;;;;;;6.40;4.47;;;;;;;21.20;38.12;101807.72;21036890;28;20109;-63
2023/01/31 04:07:46;;;;;;;10.05;5.07;;;;;;;21.15;38.23;101774.25;21023713;28;20082;-62
2023/01/31 04:17:48;;;;;;;8.02;4.88;;;;;;;21.01;38.47;101736.81;21084108;28;20032;-62
2023/01/31 04:27:50;;;;;;;7.70;4.95;;;;;;;21.17;38.14;101772.06;21025748;28;20563;-62
2023/01/31 04:37:51;;;;;;;7.82;4.50;;;;;;;21.17;38.30;101762.88;21038726;28;20106;-62
2023/01/31 04:47:53;;;;;;;6.90;4.50;;;;;;;21.10;37.94;101756.69;21084875;28;20077;-61
2023/01/31 04:57:54;;;;;;;7.50;4.47;;;;;;;21.13;38.00;101734.75;21134357;28;20479;-62
2023/01/31 05:08:01;;;;;;;6.50;3.97;;;;;;;21.14;38.27;101725.28;21141139;28;20360;-62
2023/01/31 05:18:05;;;;;;;5.90;4.25;;;;;;;21.12;38.16;101713.59;21029501;28;20107;-62
2023/01/31 05:28:07;;;;;;;7.25;3.90;;;;;;;21.12;38.31;101724.72;21044389;28;20040;-62
2023/01/31 05:38:09;;;;;;;6.05;4.13;;;;;;;21.12;38.10;101699.66;21051955;28;20036;-62
2023/01/31 05:48:10;;;;;;;7.78;3.97;;;;;;;21.11;38.33;101703.53;21039699;28;20105;-63
2023/01/31 05:58:11;;;;;;;7.50;4.00;;;;;;;21.11;38.08;101700.75;21078007;28;20094;-62
2023/01/31 06:08:13;;;;;;;5.00;3.72;;;;;;;21.09;38.09;101697.41;21077195;28;20082;-63
2023/01/31 06:18:14;;;;;;;4.97;3.90;;;;;;;21.07;38.27;101707.94;21024060;28;20391;-62
2023/01/31 06:28:16;;;;;;;5.30;3.80;;;;;;;21.06;38.13;101700.69;21026811;28;20041;-62
2023/01/31 06:38:17;;;;;;;4.85;3.70;;;;;;;21.04;38.12;101686.22;21059655;28;20454;-62
2023/01/31 06:48:19;;;;;;;4.65;3.65;;;;;;;21.03;38.07;101717.94;21000135;28;20396;-62
2023/01/31 06:58:21;;;;;;;3.90;3.55;;;;;;;21.01;38.03;101720.13;20992546;28;20102;-62
2023/01/31 07:08:22;;;;;;;4.32;3.28;;;;;;;21.00;38.17;101719.28;21004268;28;20040;-62
2023/01/31 07:18:23;;;;;;;3.58;2.92;;;;;;;20.98;38.10;101703.94;21023963;28;20041;-62
2023/01/31 07:28:25;;;;;;;4.25;3.33;;;;;;;20.98;37.94;101687.25;21044174;28;20122;-62
2023/01/31 07:38:35;;;;;;;3.80;3.13;;;;;;;20.83;37.98;101656.50;21031056;28;20056;-61
2023/01/31 07:48:37;;;;;;;3.47;3.17;;;;;;;20.96;38.30;101662.50;21039822;28;20044;-61
2023/01/31 07:58:42;;;;;;;4.10;3.10;;;;;;;20.94;38.05;101677.78;21027133;28;20040;-62
2023/01/31 08:08:53;;;;;;;3.88;3.20;;;;;;;20.93;38.34;101670.53;21065920;28;20052;-62
2023/01/31 08:18:54;;;;;;;3.05;2.75;;;;;;;20.93;38.02;101682.47;21068841;28;20036;-61
2023/01/31 08:28:56;;;;;;;3.40;2.90;;;;;;;20.92;38.17;101688.31;21044436;28;20071;-63
2023/01/31 08:38:58;;;;;;;4.45;3.13;;;;;;;20.92;38.04;101696.66;21035855;28;20496;-61
2023/01/31 08:49:03;;;;;;;3.58;3.22;;;;;;;20.90;38.02;101685.81;21065240;28;20045;-62
2023/01/31 08:59:07;;;;;;;3.65;3.05;;;;;;;20.90;38.27;101673.84;21038916;28;20561;-62
2023/01/31 09:09:09;;;;;;;4.38;2.97;;;;;;;20.70;38.08;101703.09;21041854;28;20041;-62
2023/01/31 09:19:11;;;;;;;3.45;3.15;;;;;;;20.86;38.17;101731.13;21054296;28;20036;-62
2023/01/31 09:29:12;;;;;;;3.72;2.97;;;;;;;20.86;38.17;101725.53;21021074;28;20052;-61
2023/01/31 09:39:14;;;;;;;4.13;3.05;;;;;;;20.84;37.97;101739.69;21042629;28;20101;-61
2023/01/31 09:49:25;;;;;;;3.67;2.85;;;;;;;20.83;38.37;101773.34;21037536;28;20044;-61
2023/01/31 10:00:11;;;;;;;3.97;2.83;;;;;;;20.77;38.36;101792.75;21016051;28;20097;-61
2023/01/31 10:10:34;;;;;;;3.13;2.80;;;;;;;20.77;38.01;101815.00;21010770;28;20039;-61
2023/01/31 10:21:01;;;;;;;3.30;3.00;;;;;;;20.77;38.16;101862.31;21012695;28;20552;-61
2023/01/31 10:31:22;;;;;;;3.10;2.80;;;;;;;20.75;38.19;101856.13;21015744;28;20036;-62
2023/01/31 10:42:02;;;;;;;3.42;3.03;;;;;;;20.69;38.22;101892.50;21035376;28;20455;-63
2023/01/31 10:52:36;;;;;;;3.60;3.17;;;;;;;20.70;38.13;101958.97;21030703;28;20044;-61
2023/01/31 11:02:38;;;;;;;2.80;2.60;;;;;;;20.64;38.08;101887.72;21027761;28;21260;-61
2023/01/31 11:12:50;;;;;;;3.03;2.60;;;;;;;20.71;38.16;101959.81;21067574;28;20032;-63
2023/01/31 11:22:56;;;;;;;2.95;2.47;;;;;;;20.69;38.34;101985.13;21006723;28;20483;-61
2023/01/31 11:32:58;;;;;;;2.97;2.60;;;;;;;20.69;38.32;102014.88;21034655;28;20047;-61
2023/01/31 11:43:06;;;;;;;2.55;2.35;;;;;;;20.66;38.28;102029.28;21064870;28;20045;-61
2023/01/31 11:53:21;;;;;;;3.10;2.80;;;;;;;20.62;38.26;102079.03;21020167;28;20036;-62
2023/01/31 12:03:23;;;;;;;3.50;2.42;;;;;;;20.51;38.43;102093.81;21026958;28;20089;-61
2023/01/31 12:13:27;;;;;;;2.72;2.53;;;;;;;20.59;38.45;102135.13;21088101;28;20490;-62
2023/01/31 12:24:02;;;;;;;2.10;1.98;;;;;;;20.55;38.30;102142.28;21103535;27;20102;-61
2023/01/31 12:34:38;;;;;;;3.25;2.50;;;;;;;20.50;38.51;102133.84;21018925;28;20455;-61
2023/01/31 12:44:46;;;;;;;2.25;2.05;;;;;;;20.54;38.41;102146.16;21011729;28;20048;-62
2023/01/31 12:54:57;;;;;;;2.40;2.17;;;;;;;20.53;38.50;102169.50;21011847;28;20086;-62
2023/01/31 13:05:15;;;;;;;2.17;1.98;;;;;;;20.50;38.44;102211.72;21031939;28;20381;-62
2023/01/31 13:15:30;;;;;;;4.65;2.45;;;;;;;20.47;38.35;102214.94;21035226;28;20040;-62
2023/01/31 13:25:43;;;;;;;3.58;2.20;;;;;;;20.44;38.58;102237.72;21092051;28;20406;-62
2023/01/31 13:35:49;;;;;;;3.60;2.40;;;;;;;20.45;38.51;102267.19;21079140;28;20044;-62
2023/01/31 13:46:16;;;;;;;3.25;2.03;;;;;;;20.28;38.42;102233.75;21078019;28;20044;-62
2023/01/31 13:56:31;;;;;;;5.03;1.70;;;;;;;20.26;38.62;102264.56;21078526;28;20070;-62
2023/01/31 14:06:51;;;;;;;1.92;1.55;;;;;;;20.35;38.76;102289.22;21077737;28;20094;-62
2023/01/31 14:16:54;;;;;;;2.88;1.70;;;;;;;20.40;38.92;102298.50;21077482;28;20434;-63
2023/01/31 14:26:56;;;;;;;3.40;1.70;;;;;;;20.36;38.72;102313.16;21076226;28;20108;-63
2023/01/31 14:37:00;;;;;;;1.88;1.63;;;;;;;19.78;38.62;102226.81;21074829;28;20040;-62
2023/01/31 14:47:07;;;;;;;3.75;1.50;;;;;;;20.36;38.45;102313.16;21075423;28;20044;-62
2023/01/31 14:57:14;;;;;;;1.95;1.42;;;;;;;20.35;38.27;102306.75;21083230;28;20141;-62
2023/01/31 15:07:19;;;;;;;3.00;1.48;;;;;;;20.35;38.50;102322.59;21092082;28;20097;-62
2023/01/31 15:17:24;;;;;;;4.07;1.63;;;;;;;20.26;38.19;102333.22;21091412;28;20040;-62
2023/01/31 15:27:29;;;;;;;2.85;1.40;;;;;;;20.30;38.36;102342.78;21091113;28;20040;-62
2023/01/31 15:37:33;;;;;;;1.63;1.40;;;;;;;20.27;38.09;102338.53;21089783;28;20093;-62
2023/01/31 15:47:34;;;;;;;2.35;1.48;;;;;;;20.26;37.99;102359.09;21089145;28;20060;-62
2023/01/31 15:57:56;;;;;;;1.30;1.20;;;;;;;20.03;38.40;102314.63;21087653;28;20549;-62
2023/01/31 16:08:20;;;;;;;1.70;1.40;;;;;;;20.02;38.13;102302.66;21086125;28;20047;-62
2023/01/31 16:18:25;;;;;;;1.30;1.20;;;;;;;20.18;38.28;102305.78;21085878;28;20032;-61
2023/01/31 16:28:29;;;;;;;1.40;1.30;;;;;;;19.98;38.06;102250.59;21084750;28;20044;-62
2023/01/31 16:38:31;;;;;;;2.97;1.70;;;;;;;20.04;38.09;102283.81;21084932;28;20421;-62
2023/01/31 16:48:40;;;;;;;1.30;1.20;;;;;;;20.10;38.04;102312.56;21083612;28;20044;-62
2023/01/31 16:58:48;;;;;;;2.10;1.20;;;;;;;20.08;38.16;102288.88;21083188;28;20040;-64
2023/01/31 17:08:49;;;;;;;2.30;1.30;;;;;;;20.05;38.07;102323.56;21081681;28;20052;-61
2023/01/31 17:18:54;;;;;;;2.47;1.13;;;;;;;20.02;38.25;102285.13;21081203;28;20044;-62
2023/01/31 17:28:55;;;;;;;1.42;1.33;;;;;;;19.81;38.05;102239.38;21081596;28;20036;-63
2023/01/31 17:38:57;;;;;;;2.30;1.20;;;;;;;19.97;37.82;102223.88;21081125;28;20094;-63
2023/01/31 17:49:01;;;;;;;2.47;1.20;;;;;;;19.95;38.05;102231.63;21078316;28;20040;-63
2023/01/31 17:59:02;;;;;;;1.20;1.10;;;;;;;19.94;38.04;102232.72;21078892;28;20028;-63
2023/01/31 18:09:06;;;;;;;1.33;1.23;;;;;;;19.75;37.99;102212.56;21078686;28;20057;-63
2023/01/31 18:19:07;;;;;;;1.42;1.30;;;;;;;19.91;37.74;102233.19;21078025;28;20036;-63
2023/01/31 18:29:08;;;;;;;1.02;0.82;;;;;;;19.90;37.99;102203.75;21076380;28;20101;-63
2023/01/31 18:39:13;;;;;;;1.55;1.35;;;;;;;19.86;37.55;102185.88;21076274;28;20443;-63
2023/01/31 18:49:16;;;;;;;1.33;1.23;;;;;;;19.87;37.71;102187.56;21075950;28;20113;-62
2023/01/31 18:59:18;;;;;;;1.48;1.23;;;;;;;19.76;37.48;102162.31;21075066;28;20105;-62
2023/01/31 19:09:21;;;;;;;1.10;1.00;;;;;;;19.79;37.77;102172.97;21074967;28;20044;-63
2023/01/31 19:19:22;;;;;;;1.60;1.20;;;;;;;19.80;37.70;102168.25;21075233;28;20384;-61
2023/01/31 19:29:24;;;;;;;1.10;1.00;;;;;;;19.74;37.80;102147.81;21074577;28;20480;-63
2023/01/31 19:39:25;;;;;;;1.60;1.50;;;;;;;19.76;37.78;102154.00;21073995;28;20548;-62
2023/01/31 19:49:27;;;;;;;1.52;0.93;;;;;;;19.73;37.47;102159.19;21089146;28;20044;-62
2023/01/31 19:59:28;;;;;;;1.80;1.05;;;;;;;19.67;37.54;102172.13;21088743;28;20456;-62
2023/01/31 20:09:30;;;;;;;1.48;1.30;;;;;;;19.73;37.62;102175.84;21088030;28;20028;-63
2023/01/31 20:19:31;;;;;;;1.42;1.27;;;;;;;19.70;37.64;102163.31;21087196;28;20059;-62
2023/01/31 20:29:32;;;;;;;1.25;1.15;;;;;;;19.70;37.64;102188.31;21085788;28;20040;-62
2023/01/31 20:39:34;;;;;;;1.75;1.45;;;;;;;19.67;37.46;102193.50;21085492;28;20028;-63
2023/01/31 20:49:36;;;;;;;1.75;1.20;;;;;;;19.65;37.33;102190.94;21083829;28;20047;-63
2023/01/31 20:59:38;;;;;;;1.50;1.40;;;;;;;19.67;37.20;102210.16;21083429;28;20032;-63
2023/01/31 21:09:40;;;;;;;1.30;1.20;;;;;;;19.61;37.52;102217.53;21082428;28;20040;-63
2023/01/31 21:19:41;;;;;;;1.15;1.05;;;;;;;19.62;37.61;102223.94;21081994;28;20553;-63
2023/01/31 21:29:43;;;;;;;1.83;1.25;;;;;;;19.59;37.19;102219.66;21080577;28;20441;-63
2023/01/31 21:39:47;;;;;;;1.27;1.17;;;;;;;19.59;37.26;102213.25;21041053;28;20044;-63
2023/01/31 21:49:49;;;;;;;1.50;1.40;;;;;;;19.60;37.23;102215.81;21079089;28;20441;-63
2023/01/31 21:59:50;;;;;;;2.13;1.63;;;;;;;19.63;37.55;102209.78;21039574;28;20044;-62
2023/01/31 22:09:51;;;;;;;2.38;1.70;;;;;;;19.47;37.39;102196.59;20991948;28;20040;-62
2023/01/31 22:19:53;;;;;;;2.00;1.70;;;;;;;19.59;37.45;102205.78;20995116;28;20028;-62
2023/01/31 22:29:54;;;;;;;1.90;1.70;;;;;;;19.78;37.38;102203.75;20993488;28;20506;-63
2023/01/31 22:39:55;;;;;;;1.67;1.50;;;;;;;19.83;37.12;102248.28;20992601;28;20045;-63
2023/01/31 22:49:57;;;;;;;1.70;1.60;;;;;;;19.80;37.11;102212.69;20991944;28;20553;-62
2023/01/31 22:59:58;;;;;;;2.22;1.60;;;;;;;19.97;37.05;102243.34;20990831;28;20038;-63
2023/01/31 23:10:00;;;;;;;2.50;1.55;;;;;;;20.01;37.36;102233.44;20991329;28;20031;-62
2023/01/31 23:20:01;;;;;;;1.92;1.73;;;;;;;20.07;37.00;102232.47;21001416;28;20098;-62
2023/01/31 23:30:05;;;;;;;3.40;1.92;;;;;;;20.10;37.11;102229.19;21018733;28;20094;-61
2023/01/31 23:40:11;;;;;;;2.15;1.67;;;;;;;20.08;37.14;102227.75;21045124;28;20407;-62
2023/01/31 23:50:12;;;;;;;2.35;1.90;;;;;;;20.20;37.06;102234.13;21054464;28;20052;-62
